Time;durP1;ratioP1;P1;durP2;ratioP2;P2;SDS_P1;SDS_P2;PMS_P1;PMS_P2;Temp;Humidity;BMP_temperature;BMP_pressure;BME280_temperature;BME280_humidity;BME280_pressure;Samples;Min_cycle;Max_cycle;Signal;HPM_P1;HPM_P2
2022/03/12 00:01:52;;;;;;;13.93;6.90;;;3.50;47.70;;;;;;4956685;28;20176;-78
2022/03/12 00:04:18;;;;;;;10.77;7.07;;;3.50;47.90;;;;;;4941088;28;20330;-78
2022/03/12 00:06:53;;;;;;;10.47;6.43;;;3.40;48.10;;;;;;4940488;28;20226;-77
2022/03/12 00:09:19;;;;;;;10.67;6.97;;;3.40;47.90;;;;;;4940983;28;20207;-77
2022/03/12 00:11:51;;;;;;;13.77;6.83;;;3.40;48.50;;;;;;4941623;28;20180;-77
2022/03/12 00:14:21;;;;;;;12.37;7.10;;;3.30;48.50;;;;;;4940780;28;20577;-77
2022/03/12 00:16:48;;;;;;;12.23;6.93;;;3.30;48.50;;;;;;4940965;28;20564;-78
2022/03/12 00:19:14;;;;;;;10.87;7.03;;;3.20;48.40;;;;;;4940037;28;20196;-77
2022/03/12 00:21:43;;;;;;;11.07;6.40;;;3.20;48.30;;;;;;4941029;28;20183;-79
2022/03/12 00:24:11;;;;;;;11.33;6.37;;;3.20;48.60;;;;;;4937633;29;20247;-77
2022/03/12 00:26:43;;;;;;;12.47;6.70;;;3.20;48.50;;;;;;4921267;29;20185;-76
2022/03/12 00:29:14;;;;;;;12.63;6.87;;;3.20;48.70;;;;;;4922448;28;20208;-79
2022/03/12 00:31:45;;;;;;;11.40;7.00;;;3.20;48.80;;;;;;4921750;29;20215;-78
2022/03/12 00:34:11;;;;;;;10.83;6.67;;;3.20;48.70;;;;;;4937405;29;20637;-78
2022/03/12 00:36:37;;;;;;;12.67;7.37;;;3.10;49.10;;;;;;4921628;29;20315;-78
2022/03/12 00:39:04;;;;;;;8.70;6.57;;;3.10;48.60;;;;;;4921156;29;20228;-79
2022/03/12 00:41:42;;;;;;;13.03;6.87;;;3.10;49.20;;;;;;4922966;29;20173;-79
2022/03/12 00:44:11;;;;;;;11.80;7.10;;;3.00;49.10;;;;;;4921917;29;20509;-78
2022/03/12 00:46:37;;;;;;;11.97;7.03;;;3.00;49.20;;;;;;4923409;29;20211;-79
2022/03/12 00:49:06;;;;;;;10.47;6.63;;;3.00;49.40;;;;;;4921230;29;20669;-78
2022/03/12 00:51:33;;;;;;;11.53;6.63;;;3.00;48.60;;;;;;4936401;28;20202;-79
2022/03/12 00:53:58;;;;;;;12.90;6.63;;;3.00;48.70;;;;;;4950019;28;20267;-79
2022/03/12 00:56:24;;;;;;;14.70;6.43;;;3.00;48.70;;;;;;4954103;28;20240;-79
2022/03/12 00:58:50;;;;;;;11.27;6.70;;;3.00;48.60;;;;;;4941365;28;20227;-80
2022/03/12 01:01:17;;;;;;;9.63;6.40;;;2.90;48.60;;;;;;4938490;29;20195;-80
2022/03/12 01:03:42;;;;;;;11.03;6.87;;;2.90;48.60;;;;;;4929925;29;20180;-79
2022/03/12 01:06:12;;;;;;;13.93;7.10;;;2.90;48.60;;;;;;4922383;29;20513;-79
2022/03/12 01:08:37;;;;;;;11.37;7.37;;;3.00;49.30;;;;;;4922374;29;20275;-79
2022/03/12 01:11:40;;;;;;;14.70;7.30;;;3.00;49.30;;;;;;4922785;28;20637;-79
2022/03/12 01:14:07;;;;;;;13.33;7.37;;;2.90;49.20;;;;;;4926169;29;20180;-80
2022/03/12 01:16:35;;;;;;;11.20;6.80;;;2.80;49.30;;;;;;4925757;29;20212;-80
2022/03/12 01:19:04;;;;;;;10.17;6.33;;;2.80;49.10;;;;;;4925209;29;20196;-79
2022/03/12 01:21:31;;;;;;;13.37;7.07;;;2.80;49.30;;;;;;4925873;29;20248;-79
2022/03/12 01:23:57;;;;;;;10.70;6.63;;;2.80;49.50;;;;;;4928900;29;20180;-79
2022/03/12 01:26:23;;;;;;;12.07;6.67;;;2.80;48.90;;;;;;4932635;29;20195;-79
2022/03/12 01:28:49;;;;;;;13.67;7.10;;;2.70;49.30;;;;;;4925372;29;20219;-79
2022/03/12 01:31:16;;;;;;;12.70;6.50;;;2.70;49.30;;;;;;4942331;29;20199;-80
2022/03/12 01:33:41;;;;;;;11.13;6.73;;;2.70;48.90;;;;;;4944769;29;20280;-80
2022/03/12 01:36:08;;;;;;;9.97;6.77;;;2.60;49.10;;;;;;4928074;29;20235;-80
2022/03/12 01:38:49;;;;;;;12.00;6.70;;;2.60;49.30;;;;;;4944735;29;20308;-80
2022/03/12 01:41:19;;;;;;;15.97;7.60;;;2.60;50.80;;;;;;4930789;29;20193;-80
2022/03/12 01:43:46;;;;;;;12.57;7.00;;;2.60;49.60;;;;;;4931872;29;20173;-80
2022/03/12 01:46:12;;;;;;;13.03;7.10;;;2.50;49.50;;;;;;4943267;29;20324;-80
2022/03/12 01:49:24;;;;;;;9.17;6.63;;;2.50;49.20;;;;;;4942832;29;20550;-80
2022/03/12 01:51:52;;;;;;;11.57;6.37;;;2.50;49.40;;;;;;4927298;29;20219;-80
2022/03/12 01:54:22;;;;;;;13.93;6.43;;;2.40;49.70;;;;;;4959183;28;20192;-79
2022/03/12 01:56:53;;;;;;;12.47;7.10;;;2.40;49.60;;;;;;4946679;28;20826;-82
2022/03/12 01:59:20;;;;;;;12.70;7.63;;;2.30;49.70;;;;;;4948688;28;20204;-84
2022/03/12 02:01:52;;;;;;;13.27;6.73;;;2.30;49.70;;;;;;4950419;28;20243;-81
2022/03/12 02:04:20;;;;;;;9.73;6.93;;;2.40;50.10;;;;;;4963187;28;20267;-80
2022/03/12 02:06:46;;;;;;;13.10;7.47;;;2.30;50.30;;;;;;4948289;28;20702;-80
2022/03/12 02:09:15;;;;;;;13.40;7.50;;;2.30;50.80;;;;;;4947737;28;20204;-80
2022/03/12 02:11:43;;;;;;;9.03;6.50;;;2.30;50.90;;;;;;4950367;28;20251;-81
2022/03/12 02:14:17;;;;;;;14.73;8.63;;;2.20;50.80;;;;;;4951071;28;20216;-80
2022/03/12 02:16:50;;;;;;;11.30;6.93;;;2.20;51.30;;;;;;4963448;28;20219;-80
2022/03/12 02:19:17;;;;;;;13.67;6.67;;;2.20;51.50;;;;;;4946827;28;20204;-79
2022/03/12 02:21:52;;;;;;;14.70;6.80;;;2.20;51.00;;;;;;4947306;28;20204;-81
2022/03/12 02:24:19;;;;;;;14.93;7.23;;;2.10;51.70;;;;;;4951220;28;20179;-79
2022/03/12 02:26:46;;;;;;;11.37;6.87;;;2.10;52.00;;;;;;4949971;28;20252;-79
2022/03/12 02:29:16;;;;;;;12.47;6.77;;;2.10;51.30;;;;;;4965215;28;20223;-79
2022/03/12 02:31:46;;;;;;;11.43;6.80;;;2.10;51.20;;;;;;4950975;28;20176;-84
2022/03/12 02:34:12;;;;;;;10.87;6.93;;;2.10;50.90;;;;;;4949516;28;20176;-80
2022/03/12 02:36:44;;;;;;;13.37;7.07;;;2.10;50.70;;;;;;4962128;28;20204;-79
2022/03/12 02:39:11;;;;;;;13.30;7.37;;;2.00;50.90;;;;;;4961413;28;20208;-80
2022/03/12 02:41:36;;;;;;;10.93;6.80;;;2.00;51.00;;;;;;4960125;28;20984;-80
2022/03/12 02:44:02;;;;;;;14.57;7.10;;;2.00;50.80;;;;;;4952130;29;20184;-80
2022/03/12 02:46:30;;;;;;;12.97;6.97;;;1.90;51.10;;;;;;4952127;28;20220;-80
2022/03/12 02:48:56;;;;;;;13.40;6.80;;;1.90;50.60;;;;;;4962289;28;20575;-80
2022/03/12 02:51:22;;;;;;;11.27;7.03;;;1.90;50.60;;;;;;4944033;29;20180;-80
2022/03/12 02:53:56;;;;;;;13.23;6.90;;;1.90;50.50;;;;;;4953739;28;20184;-80
2022/03/12 02:56:26;;;;;;;8.17;6.17;;;1.90;50.30;;;;;;4935324;29;20200;-80
2022/03/12 02:58:52;;;;;;;10.67;7.33;;;1.80;50.60;;;;;;4926776;29;20264;-80
2022/03/12 03:01:19;;;;;;;12.17;6.63;;;1.80;51.20;;;;;;4942898;29;20525;-81
2022/03/12 03:03:46;;;;;;;12.87;6.87;;;1.90;51.20;;;;;;4943853;28;20181;-81
2022/03/12 03:06:17;;;;;;;10.77;6.90;;;1.80;51.00;;;;;;4949625;28;20266;-81
2022/03/12 03:08:44;;;;;;;12.37;7.00;;;1.80;50.60;;;;;;4962414;28;20679;-81
2022/03/12 03:11:15;;;;;;;12.40;6.80;;;1.80;50.40;;;;;;4956047;28;20175;-81
2022/03/12 03:13:45;;;;;;;13.27;6.70;;;1.70;50.10;;;;;;4966502;28;20183;-81
2022/03/12 03:16:21;;;;;;;10.40;6.37;;;1.70;50.50;;;;;;4953056;29;20201;-81
2022/03/12 03:18:51;;;;;;;14.57;6.83;;;1.70;50.50;;;;;;4950602;28;20207;-81
2022/03/12 03:21:19;;;;;;;12.80;7.20;;;1.70;50.50;;;;;;4951344;29;20244;-81
2022/03/12 03:23:45;;;;;;;12.40;6.77;;;1.70;50.40;;;;;;4955806;28;20188;-81
2022/03/12 03:26:12;;;;;;;10.37;6.13;;;1.70;50.80;;;;;;4962206;28;20183;-81
2022/03/12 03:28:38;;;;;;;12.50;6.47;;;1.70;51.00;;;;;;4944957;29;20207;-82
2022/03/12 03:31:07;;;;;;;11.90;6.67;;;1.70;52.00;;;;;;4945517;29;20196;-82
2022/03/12 03:33:33;;;;;;;10.90;6.70;;;1.60;50.40;;;;;;4952057;28;20183;-81
2022/03/12 03:35:59;;;;;;;10.53;6.43;;;1.60;50.50;;;;;;4947126;29;20242;-81
2022/03/12 03:38:25;;;;;;;10.27;6.47;;;1.50;50.20;;;;;;4946098;29;20200;-81
2022/03/12 03:40:51;;;;;;;13.07;6.87;;;1.50;50.10;;;;;;4930348;29;20235;-81
2022/03/12 03:43:21;;;;;;;10.90;6.50;;;1.50;50.30;;;;;;4931885;29;20185;-81
2022/03/12 03:45:53;;;;;;;9.10;5.97;;;1.50;50.10;;;;;;4930324;28;20212;-81
2022/03/12 03:48:21;;;;;;;10.90;6.13;;;1.40;50.30;;;;;;4957825;28;20248;-81
2022/03/12 03:50:49;;;;;;;11.83;6.70;;;1.40;50.30;;;;;;4967232;28;20228;-81
2022/03/12 03:53:16;;;;;;;12.10;6.47;;;1.50;50.40;;;;;;4962801;28;20169;-82
2022/03/12 03:55:43;;;;;;;12.47;6.10;;;1.40;50.40;;;;;;4963192;29;20228;-81
2022/03/12 03:58:16;;;;;;;10.57;6.33;;;1.40;50.80;;;;;;4943965;29;20237;-82
2022/03/12 04:00:55;;;;;;;10.83;6.30;;;1.40;50.60;;;;;;4948199;28;20172;-81
2022/03/12 04:03:21;;;;;;;8.73;6.03;;;1.30;50.80;;;;;;4947423;29;20192;-81
2022/03/12 04:05:47;;;;;;;12.63;6.77;;;1.30;50.90;;;;;;4959526;28;20164;-81
2022/03/12 04:08:13;;;;;;;12.23;6.57;;;1.30;50.80;;;;;;4967520;28;20268;-81
2022/03/12 04:10:39;;;;;;;13.50;6.47;;;1.30;50.80;;;;;;4979064;28;20174;-81
2022/03/12 04:13:15;;;;;;;10.37;6.27;;;1.20;50.90;;;;;;4971388;28;20187;-80
2022/03/12 04:15:41;;;;;;;11.50;6.83;;;1.20;51.00;;;;;;4968714;28;20231;-81
2022/03/12 04:18:07;;;;;;;12.10;6.77;;;1.20;51.30;;;;;;4981180;28;20263;-80
2022/03/12 04:20:34;;;;;;;11.10;6.50;;;1.20;51.40;;;;;;4980910;28;20172;-81
2022/03/12 04:23:00;;;;;;;13.23;6.53;;;1.20;52.00;;;;;;4967473;28;20183;-81
2022/03/12 04:25:27;;;;;;;11.57;6.17;;;1.20;52.10;;;;;;4962120;28;20212;-81
2022/03/12 04:27:54;;;;;;;10.73;6.40;;;1.30;52.30;;;;;;4961270;29;20172;-80
2022/03/12 04:30:19;;;;;;;11.43;7.07;;;1.20;55.30;;;;;;4977430;28;20197;-80
2022/03/12 04:32:46;;;;;;;14.03;6.03;;;1.20;52.20;;;;;;4962129;28;20235;-80
2022/03/12 04:35:12;;;;;;;11.13;6.73;;;1.20;52.10;;;;;;4980820;28;20207;-80
2022/03/12 04:37:38;;;;;;;10.17;7.20;;;1.20;52.30;;;;;;4979771;28;20265;-80
2022/03/12 04:40:10;;;;;;;10.50;5.80;;;1.10;52.60;;;;;;4979848;28;20180;-80
2022/03/12 04:42:38;;;;;;;10.70;6.33;;;1.10;52.20;;;;;;4980196;28;20184;-80
2022/03/12 04:45:07;;;;;;;10.67;6.30;;;1.10;53.20;;;;;;4979747;28;20191;-80
2022/03/12 04:47:34;;;;;;;12.40;6.87;;;1.10;52.40;;;;;;4977443;28;20168;-80
2022/03/12 04:50:03;;;;;;;13.57;6.70;;;1.00;52.40;;;;;;4964902;28;20234;-80
2022/03/12 04:52:29;;;;;;;9.33;6.03;;;1.00;52.00;;;;;;4980949;28;20247;-81
2022/03/12 04:54:56;;;;;;;12.37;7.13;;;0.90;52.00;;;;;;4973206;29;20188;-80
2022/03/12 04:57:22;;;;;;;11.90;6.57;;;1.00;51.70;;;;;;4964958;28;20340;-81
2022/03/12 04:59:48;;;;;;;12.83;5.87;;;1.00;51.20;;;;;;4956620;29;20196;-81
2022/03/12 05:02:13;;;;;;;13.97;6.27;;;1.10;52.00;;;;;;4970764;28;20179;-81
2022/03/12 05:04:40;;;;;;;11.53;6.10;;;1.00;51.90;;;;;;4968205;28;20176;-80
2022/03/12 05:07:13;;;;;;;11.73;6.37;;;1.00;51.60;;;;;;4966294;29;20246;-81
2022/03/12 05:09:39;;;;;;;10.10;6.50;;;1.00;51.70;;;;;;4964076;28;20211;-81
2022/03/12 05:12:07;;;;;;;9.23;6.47;;;0.90;52.30;;;;;;4974677;28;20248;-81
2022/03/12 05:14:35;;;;;;;10.37;6.60;;;0.90;52.70;;;;;;4957196;28;20218;-81
2022/03/12 05:17:08;;;;;;;9.27;6.27;;;0.90;52.70;;;;;;4968489;28;20219;-81
2022/03/12 05:19:36;;;;;;;9.20;6.23;;;0.80;53.40;;;;;;4958564;29;20218;-81
2022/03/12 05:22:07;;;;;;;10.27;6.23;;;0.80;53.30;;;;;;4956560;28;20280;-80
2022/03/12 05:24:33;;;;;;;9.17;6.03;;;0.80;53.40;;;;;;4964196;28;20240;-81
2022/03/12 05:26:59;;;;;;;10.27;6.03;;;0.80;53.10;;;;;;4951894;28;20211;-81
2022/03/12 05:29:26;;;;;;;11.97;6.57;;;0.90;52.00;;;;;;4957222;28;20247;-80
2022/03/12 05:31:52;;;;;;;9.40;5.83;;;0.80;52.00;;;;;;4965651;28;20198;-80
2022/03/12 05:34:21;;;;;;;11.43;6.33;;;0.80;51.70;;;;;;4964075;28;20241;-80
2022/03/12 05:36:47;;;;;;;10.73;6.77;;;0.80;51.90;;;;;;4966542;28;20223;-80
2022/03/12 05:39:14;;;;;;;12.50;6.67;;;0.80;52.20;;;;;;4958401;28;20201;-81
2022/03/12 05:41:44;;;;;;;10.40;6.17;;;0.80;52.10;;;;;;4955532;28;20268;-81
2022/03/12 05:44:16;;;;;;;13.20;6.47;;;0.70;52.00;;;;;;4961157;28;20223;-81
2022/03/12 05:46:44;;;;;;;12.50;6.30;;;0.80;52.90;;;;;;4962219;28;20601;-81
2022/03/12 05:49:09;;;;;;;11.23;6.27;;;0.70;52.20;;;;;;4957229;28;20227;-81
2022/03/12 05:51:36;;;;;;;10.87;6.87;;;0.70;51.90;;;;;;4958951;28;20180;-80
2022/03/12 05:54:03;;;;;;;14.30;6.13;;;0.70;52.30;;;;;;4960351;28;20184;-81
2022/03/12 05:56:30;;;;;;;9.97;6.00;;;0.70;52.30;;;;;;4960732;28;20215;-81
2022/03/12 05:58:56;;;;;;;11.83;6.03;;;0.60;51.80;;;;;;4949206;28;20195;-81
2022/03/12 06:01:22;;;;;;;9.80;6.30;;;0.60;51.90;;;;;;4960824;28;20199;-81
2022/03/12 06:03:48;;;;;;;12.33;6.03;;;0.60;52.00;;;;;;4959841;29;20183;-80
2022/03/12 06:06:14;;;;;;;10.37;5.90;;;0.60;51.80;;;;;;4959056;28;20183;-80
2022/03/12 06:08:42;;;;;;;13.00;5.90;;;0.70;51.50;;;;;;4966656;28;20230;-80
2022/03/12 06:11:14;;;;;;;11.90;6.20;;;0.60;51.50;;;;;;4955682;28;20287;-80
2022/03/12 06:13:50;;;;;;;10.03;6.43;;;0.60;51.40;;;;;;4959835;29;20247;-80
2022/03/12 06:16:20;;;;;;;11.13;6.27;;;0.70;52.00;;;;;;4962976;28;20211;-80
2022/03/12 06:18:46;;;;;;;9.57;6.03;;;0.60;51.90;;;;;;4957504;28;20203;-80
2022/03/12 06:21:11;;;;;;;10.63;6.00;;;0.60;52.00;;;;;;4962879;28;20172;-80
2022/03/12 06:23:39;;;;;;;15.53;5.87;;;0.70;51.60;;;;;;4955739;28;20182;-80
2022/03/12 06:26:12;;;;;;;10.87;5.93;;;0.70;51.50;;;;;;4950182;28;20488;-80
2022/03/12 06:28:38;;;;;;;9.53;5.80;;;0.70;51.10;;;;;;4945196;28;20208;-80
2022/03/12 06:31:03;;;;;;;8.70;5.60;;;0.80;51.60;;;;;;4952477;28;20195;-80
2022/03/12 06:33:31;;;;;;;11.80;6.30;;;0.80;51.90;;;;;;4947936;29;20185;-80
2022/03/12 06:35:57;;;;;;;13.73;6.37;;;0.80;51.70;;;;;;4961007;28;20219;-81
2022/03/12 06:38:26;;;;;;;14.37;6.27;;;0.80;51.30;;;;;;4966511;28;20631;-82
2022/03/12 06:40:58;;;;;;;11.33;6.80;;;0.90;51.50;;;;;;4965684;28;20233;-85
2022/03/12 06:43:26;;;;;;;11.37;7.43;;;1.00;51.40;;;;;;4966643;28;20214;-82
2022/03/12 06:46:01;;;;;;;11.27;6.73;;;1.00;52.00;;;;;;4956661;28;20181;-81
2022/03/12 06:48:29;;;;;;;10.17;6.73;;;1.00;50.20;;;;;;4965985;28;20202;-79
2022/03/12 06:50:55;;;;;;;9.73;5.70;;;1.10;51.00;;;;;;4962100;28;20212;-80
2022/03/12 06:53:21;;;;;;;9.33;6.47;;;1.10;50.90;;;;;;4975916;28;20183;-80
2022/03/12 06:55:47;;;;;;;9.60;5.93;;;1.20;50.80;;;;;;4963540;28;20277;-79
2022/03/12 06:58:13;;;;;;;9.47;5.97;;;1.20;50.20;;;;;;4964006;28;20203;-78
2022/03/12 07:00:40;;;;;;;10.57;5.87;;;1.20;49.70;;;;;;4966044;28;20172;-84
2022/03/12 07:03:06;;;;;;;12.20;5.87;;;1.30;49.10;;;;;;4959513;28;20191;-80
2022/03/12 07:05:33;;;;;;;12.97;6.20;;;1.30;49.40;;;;;;4977967;28;20179;-78
2022/03/12 07:07:59;;;;;;;9.73;5.43;;;1.40;49.20;;;;;;4964474;28;20203;-79
2022/03/12 07:10:25;;;;;;;10.30;6.07;;;1.40;48.70;;;;;;4963616;28;20623;-79
2022/03/12 07:12:52;;;;;;;10.13;6.23;;;1.50;49.60;;;;;;4962341;28;20175;-78
2022/03/12 07:15:18;;;;;;;6.87;5.07;;;1.50;48.90;;;;;;4961988;28;20674;-79
2022/03/12 07:17:44;;;;;;;8.63;6.10;;;1.60;48.40;;;;;;4963932;28;20248;-79
2022/03/12 07:20:11;;;;;;;9.00;5.67;;;1.60;48.90;;;;;;4964171;28;20305;-79
2022/03/12 07:22:37;;;;;;;8.23;5.60;;;1.70;48.50;;;;;;4964339;28;20194;-79
2022/03/12 07:25:03;;;;;;;10.77;6.17;;;1.70;48.60;;;;;;4953939;28;20633;-78
2022/03/12 07:27:29;;;;;;;11.90;5.77;;;1.80;48.70;;;;;;4960281;28;20179;-78
2022/03/12 07:29:55;;;;;;;9.43;5.63;;;1.90;48.30;;;;;;4962476;28;20213;-80
2022/03/12 07:32:22;;;;;;;9.27;5.53;;;2.00;47.80;;;;;;4963894;28;20290;-79
2022/03/12 07:34:48;;;;;;;11.07;6.90;;;2.00;47.30;;;;;;4964285;28;20266;-79
2022/03/12 07:37:13;;;;;;;10.10;5.80;;;2.20;47.80;;;;;;4966231;28;20181;-80
2022/03/12 07:39:45;;;;;;;7.87;5.90;;;2.30;47.50;;;;;;4964059;28;20286;-79
2022/03/12 07:42:11;;;;;;;8.00;5.40;;;2.40;47.60;;;;;;4950837;28;20252;-79
2022/03/12 07:44:40;;;;;;;7.47;5.33;;;2.50;47.40;;;;;;4964163;28;20175;-78
2022/03/12 07:47:07;;;;;;;6.63;5.17;;;2.50;47.30;;;;;;4961543;28;20238;-79
2022/03/12 07:49:35;;;;;;;9.03;5.47;;;2.60;46.10;;;;;;4952832;28;20214;-79
2022/03/12 07:52:01;;;;;;;20.97;5.50;;;2.80;46.10;;;;;;4964448;28;20179;-79
2022/03/12 07:54:27;;;;;;;8.30;5.20;;;2.80;46.10;;;;;;4964416;28;20179;-80
2022/03/12 07:56:57;;;;;;;9.47;5.50;;;2.90;45.50;;;;;;4961407;28;20285;-79
2022/03/12 07:59:22;;;;;;;6.63;4.50;;;3.00;45.10;;;;;;4968187;28;20190;-79
2022/03/12 08:01:48;;;;;;;7.43;4.90;;;3.10;45.30;;;;;;4970898;28;20191;-80
2022/03/12 08:04:14;;;;;;;10.03;5.20;;;3.10;43.90;;;;;;4968871;28;20194;-82
2022/03/12 08:06:42;;;;;;;9.27;5.30;;;3.20;44.50;;;;;;4966019;28;20210;-81
2022/03/12 08:09:08;;;;;;;6.80;5.10;;;3.30;44.20;;;;;;4962499;28;20199;-81
2022/03/12 08:11:35;;;;;;;9.30;5.10;;;3.40;44.40;;;;;;4965134;28;20186;-80
2022/03/12 08:14:03;;;;;;;9.73;5.07;;;3.60;44.30;;;;;;4964389;28;20179;-80
2022/03/12 08:16:30;;;;;;;6.77;5.00;;;3.80;43.10;;;;;;4963154;28;20211;-80
2022/03/12 08:18:56;;;;;;;10.03;5.17;;;3.80;43.00;;;;;;4973909;28;20195;-80
2022/03/12 08:21:22;;;;;;;7.57;5.07;;;3.90;43.50;;;;;;4965216;28;20184;-79
2022/03/12 08:23:54;;;;;;;9.77;5.57;;;4.10;42.40;;;;;;4967566;28;20252;-79
2022/03/12 08:26:20;;;;;;;8.53;5.27;;;4.10;42.20;;;;;;4963896;28;20195;-79
2022/03/12 08:28:47;;;;;;;8.47;5.20;;;4.20;42.20;;;;;;4966389;28;20238;-80
2022/03/12 08:31:16;;;;;;;7.90;5.03;;;4.20;42.10;;;;;;4960060;28;20188;-80
2022/03/12 08:33:43;;;;;;;8.37;5.63;;;4.20;41.90;;;;;;4963424;28;20195;-80
2022/03/12 08:36:10;;;;;;;8.80;4.90;;;4.20;42.50;;;;;;4986562;28;20215;-80
2022/03/12 08:38:37;;;;;;;7.37;4.87;;;4.20;42.40;;;;;;4985101;28;20191;-80
2022/03/12 08:41:07;;;;;;;7.50;4.93;;;4.20;42.20;;;;;;4977133;28;20163;-80
2022/03/12 08:43:34;;;;;;;9.17;5.23;;;4.20;41.80;;;;;;4966614;28;20176;-79
2022/03/12 08:46:01;;;;;;;7.30;4.87;;;4.20;41.90;;;;;;4944634;29;20545;-79
2022/03/12 08:48:27;;;;;;;7.43;4.50;;;4.20;41.90;;;;;;4949128;28;20219;-79
2022/03/12 08:50:54;;;;;;;6.90;4.87;;;4.20;42.10;;;;;;4967511;28;20183;-79
2022/03/12 08:53:21;;;;;;;8.53;5.27;;;4.20;42.10;;;;;;4965568;28;20242;-79
2022/03/12 08:55:48;;;;;;;8.60;5.80;;;4.30;41.30;;;;;;4959565;28;20209;-79
2022/03/12 08:58:13;;;;;;;8.93;4.73;;;4.30;42.30;;;;;;4965523;28;20203;-80
2022/03/12 09:00:39;;;;;;;7.00;5.10;;;4.30;42.50;;;;;;4964875;28;20176;-80
2022/03/12 09:03:05;;;;;;;9.30;5.20;;;4.40;42.80;;;;;;4959615;28;20222;-79
2022/03/12 09:05:31;;;;;;;6.57;5.03;;;4.40;42.70;;;;;;4964210;28;20190;-79
2022/03/12 09:07:58;;;;;;;7.97;4.60;;;4.50;42.40;;;;;;4951552;28;20214;-79
2022/03/12 09:10:24;;;;;;;9.30;5.10;;;4.50;42.40;;;;;;4968748;28;20217;-79
2022/03/12 09:12:53;;;;;;;8.03;4.53;;;4.50;42.10;;;;;;4962155;28;20226;-77
2022/03/12 09:15:22;;;;;;;9.90;5.43;;;4.60;42.20;;;;;;4974372;28;20196;-80
2022/03/12 09:17:48;;;;;;;7.03;5.00;;;4.60;43.00;;;;;;4987679;28;20660;-79
2022/03/12 09:20:28;;;;;;;7.93;4.63;;;4.70;42.60;;;;;;4964193;28;20203;-79
2022/03/12 09:23:05;;;;;;;7.50;5.00;;;4.90;42.50;;;;;;4977963;28;20636;-77
2022/03/12 09:25:31;;;;;;;9.10;4.90;;;5.00;42.10;;;;;;4959479;28;20171;-78
2022/03/12 09:28:00;;;;;;;6.90;4.73;;;5.10;41.80;;;;;;4958330;28;20639;-77
2022/03/12 09:30:26;;;;;;;7.63;5.17;;;5.20;40.90;;;;;;4959194;28;20199;-77
2022/03/12 09:32:53;;;;;;;7.23;4.50;;;5.40;41.30;;;;;;4948023;28;20192;-77
2022/03/12 09:35:25;;;;;;;7.77;4.77;;;5.40;40.20;;;;;;4963036;28;20206;-77
2022/03/12 09:37:58;;;;;;;7.37;5.13;;;5.30;40.10;;;;;;4962876;28;20171;-78
2022/03/12 09:40:25;;;;;;;7.13;4.90;;;5.30;40.90;;;;;;4962156;28;20191;-78
2022/03/12 09:43:12;;;;;;;7.07;4.87;;;5.40;41.30;;;;;;4960018;28;20167;-78
2022/03/12 09:45:40;;;;;;;7.40;4.87;;;5.40;40.90;;;;;;4959992;28;20190;-79
2022/03/12 09:48:09;;;;;;;7.93;4.83;;;5.50;41.20;;;;;;4974528;28;20203;-80
2022/03/12 09:50:35;;;;;;;7.53;5.00;;;5.60;40.20;;;;;;4990944;28;20175;-82
2022/03/12 09:53:25;;;;;;;7.57;4.63;;;5.60;40.70;;;;;;4973623;28;20207;-80
2022/03/12 09:55:52;;;;;;;9.40;4.60;;;5.70;39.50;;;;;;4968121;28;20203;-80
2022/03/12 09:58:24;;;;;;;6.83;4.83;;;5.80;39.70;;;;;;4966939;28;20261;-79
2022/03/12 10:01:21;;;;;;;7.40;4.87;;;5.80;39.70;;;;;;4984606;28;20631;-79
2022/03/12 10:03:48;;;;;;;8.00;4.83;;;5.90;40.20;;;;;;4966946;28;20600;-78
2022/03/12 10:06:15;;;;;;;7.67;5.17;;;5.90;40.10;;;;;;4964628;28;20210;-81
2022/03/12 10:08:43;;;;;;;8.03;4.53;;;6.00;40.80;;;;;;4964268;28;20215;-82
2022/03/12 10:11:15;;;;;;;7.53;5.30;;;6.10;39.50;;;;;;4963533;28;20187;-74
2022/03/12 10:13:49;;;;;;;7.37;5.33;;;6.20;39.80;;;;;;4955408;28;20195;-78
2022/03/12 10:16:18;;;;;;;9.43;4.70;;;6.20;39.60;;;;;;4960307;28;20304;-83
2022/03/12 10:18:47;;;;;;;7.90;5.63;;;6.30;38.60;;;;;;4951916;28;20304;-82
2022/03/12 10:21:20;;;;;;;7.10;5.00;;;6.40;39.10;;;;;;4971714;28;20271;-83
2022/03/12 10:23:46;;;;;;;6.17;4.53;;;6.80;39.20;;;;;;4975111;28;20195;-82
2022/03/12 10:26:13;;;;;;;8.80;5.00;;;7.20;38.60;;;;;;4964799;28;20177;-84
2022/03/12 10:28:41;;;;;;;7.43;5.17;;;7.70;38.60;;;;;;4958804;28;20211;-83
2022/03/12 10:31:09;;;;;;;7.73;5.07;;;8.10;38.50;;;;;;4977615;28;20258;-84
2022/03/12 10:33:36;;;;;;;10.50;5.80;;;8.20;37.80;;;;;;4978237;28;20655;-85
2022/03/12 10:36:17;;;;;;;10.40;5.20;;;8.30;37.90;;;;;;4954666;28;20203;-84
2022/03/12 10:38:50;;;;;;;8.50;5.37;;;8.60;37.50;;;;;;4964017;28;20194;-84
2022/03/12 10:41:30;;;;;;;6.53;4.77;;;8.90;36.60;;;;;;4981734;28;20278;-84
2022/03/12 10:43:56;;;;;;;8.43;5.37;;;8.90;36.20;;;;;;4955157;28;20183;-84
2022/03/12 10:46:25;;;;;;;6.37;5.00;;;9.00;36.40;;;;;;4965290;28;20185;-84
2022/03/12 10:48:57;;;;;;;6.63;4.83;;;9.20;37.90;;;;;;4952015;28;20187;-84
2022/03/12 10:51:31;;;;;;;10.10;5.40;;;9.60;36.20;;;;;;4961789;28;20180;-84
2022/03/12 10:54:08;;;;;;;8.60;5.33;;;9.60;35.40;;;;;;4976977;28;20195;-84
2022/03/12 10:56:54;;;;;;;7.20;5.23;;;9.60;35.20;;;;;;4969589;28;20203;-83
2022/03/12 10:59:27;;;;;;;10.30;5.70;;;9.50;35.60;;;;;;4960997;28;20591;-74
2022/03/12 11:14:23;;;;;;;6.97;5.50;;;10.70;34.80;;;;;;4879869;29;20234;-82
2022/03/12 11:17:11;;;;;;;8.40;5.27;;;10.80;34.60;;;;;;4846337;29;20219;-84
2022/03/12 11:19:45;;;;;;;9.77;5.53;;;10.70;34.50;;;;;;4874546;29;20225;-84
2022/03/12 11:22:18;;;;;;;7.97;5.40;;;10.60;34.10;;;;;;4973566;28;20631;-83
2022/03/12 11:24:48;;;;;;;8.73;5.30;;;10.50;34.30;;;;;;4960370;28;20194;-83
2022/03/12 11:27:33;;;;;;;7.93;5.10;;;10.40;34.40;;;;;;4968336;28;20183;-82
2022/03/12 11:30:04;;;;;;;6.57;5.20;;;10.40;35.20;;;;;;4964636;28;20210;-75
2022/03/12 11:33:08;;;;;;;9.53;5.80;;;10.80;34.50;;;;;;4965752;28;20182;-81
2022/03/12 11:36:55;;;;;;;;;;;;;;;;;;;;;
2022/03/12 11:39:57;;;;;;;7.53;5.13;;;11.20;32.90;;;;;;4923674;29;20212;-82
2022/03/12 11:42:37;;;;;;;8.67;5.63;;;11.40;33.70;;;;;;4897837;29;20191;-82
2022/03/12 11:45:09;;;;;;;9.33;5.67;;;11.50;33.10;;;;;;4958750;28;20202;-83
2022/03/12 11:47:38;;;;;;;7.80;5.07;;;11.80;32.80;;;;;;4984408;28;20695;-81
2022/03/12 11:50:05;;;;;;;8.53;5.43;;;12.00;32.40;;;;;;4970283;28;20598;-81
2022/03/12 11:52:37;;;;;;;6.33;5.40;;;11.90;32.70;;;;;;4967607;28;20175;-82
2022/03/12 11:55:14;;;;;;;7.13;5.43;;;11.70;32.90;;;;;;4957463;28;20177;-81
2022/03/12 11:57:56;;;;;;;8.13;5.47;;;11.50;32.90;;;;;;4976477;28;20268;-82
2022/03/12 12:00:28;;;;;;;10.57;5.40;;;11.50;33.30;;;;;;4961859;28;20172;-83
2022/03/12 12:02:58;;;;;;;7.83;5.20;;;11.60;33.10;;;;;;4981796;28;20176;-81
2022/03/12 12:05:37;;;;;;;9.40;5.67;;;12.00;33.10;;;;;;4960604;28;20180;-82
2022/03/12 12:08:09;;;;;;;9.07;5.50;;;12.20;32.20;;;;;;4963243;28;20206;-81
2022/03/12 12:10:41;;;;;;;9.77;5.97;;;12.20;32.50;;;;;;4981814;28;20187;-81
2022/03/12 12:13:22;;;;;;;9.60;5.77;;;11.90;33.00;;;;;;4986198;28;20188;-82
2022/03/12 12:16:18;;;;;;;9.70;5.93;;;11.80;34.10;;;;;;4981041;28;20563;-82
2022/03/12 12:18:45;;;;;;;8.10;5.47;;;11.50;33.90;;;;;;4976150;28;20191;-79
2022/03/12 12:21:18;;;;;;;7.40;5.83;;;11.20;34.40;;;;;;4961352;28;20175;-79
2022/03/12 12:23:52;;;;;;;8.47;6.00;;;10.90;34.30;;;;;;4950239;28;20190;-79
2022/03/12 12:26:29;;;;;;;9.00;5.20;;;10.60;34.70;;;;;;4963366;28;20167;-79
2022/03/12 12:28:56;;;;;;;9.03;5.53;;;10.30;34.80;;;;;;4948549;28;20217;-79
2022/03/12 12:31:45;;;;;;;9.63;5.90;;;10.10;35.70;;;;;;4953414;28;20191;-80
2022/03/12 12:34:11;;;;;;;9.07;5.10;;;10.10;35.80;;;;;;4964732;28;20207;-79
2022/03/12 12:37:01;;;;;;;8.20;5.53;;;10.00;35.50;;;;;;4957517;28;20204;-79
2022/03/12 12:39:27;;;;;;;8.47;5.90;;;9.90;35.70;;;;;;4957647;28;20210;-78
2022/03/12 12:42:05;;;;;;;11.27;5.60;;;9.80;35.50;;;;;;4963330;28;20172;-80
2022/03/12 12:44:36;;;;;;;8.03;5.60;;;10.00;35.60;;;;;;4961002;28;20167;-79
2022/03/12 12:47:04;;;;;;;8.60;5.60;;;10.10;35.20;;;;;;4953541;28;20181;-79
2022/03/12 12:49:43;;;;;;;7.40;5.60;;;10.10;35.60;;;;;;4971309;28;20755;-78
2022/03/12 12:56:25;;;;;;;8.87;6.10;;;10.10;35.90;;;;;;4974168;28;20344;-82
2022/03/12 12:59:10;;;;;;;6.83;5.20;;;10.10;36.00;;;;;;4961744;28;20195;-82
2022/03/12 13:01:47;;;;;;;6.87;5.23;;;10.10;35.90;;;;;;4964516;28;20183;-83
2022/03/12 13:04:37;;;;;;;7.20;5.07;;;10.00;35.50;;;;;;4965382;28;20172;-82
2022/03/12 13:07:24;;;;;;;6.87;4.73;;;10.00;36.00;;;;;;4945193;28;20189;-82
2022/03/12 13:10:00;;;;;;;7.33;5.20;;;10.00;35.80;;;;;;4959715;28;20200;-82
2022/03/12 13:12:41;;;;;;;6.10;5.33;;;10.20;36.20;;;;;;4971440;28;20259;-85
2022/03/12 13:15:14;;;;;;;6.10;5.20;;;10.30;36.40;;;;;;4964537;28;20173;-79
2022/03/12 13:17:43;;;;;;;8.13;5.60;;;10.50;35.80;;;;;;4962752;28;20176;-80
2022/03/12 13:20:30;;;;;;;8.70;5.50;;;10.60;35.20;;;;;;4966143;28;20275;-78
2022/03/12 13:23:00;;;;;;;9.67;5.40;;;10.50;35.60;;;;;;4959495;28;20204;-80